sensor_id;sensor_type;location;lat;lon;timestamp;P1;durP1;ratioP1;P2;durP2;ratioP2
4001;SDS011;2015;48.670;9.060;2022-09-09T00:01:59;2.27;;;2.07;;
4001;SDS011;2015;48.670;9.060;2022-09-09T00:04:41;2.23;;;2.13;;
4001;SDS011;2015;48.670;9.060;2022-09-09T00:21:36;3.03;;;2.30;;
4001;SDS011;2015;48.670;9.060;2022-09-09T00:27:07;2.47;;;2.27;;
4001;SDS011;2015;48.670;9.060;2022-09-09T00:32:29;4.10;;;2.30;;
4001;SDS011;2015;48.670;9.060;2022-09-09T00:35:18;2.37;;;2.00;;
4001;SDS011;2015;48.670;9.060;2022-09-09T00:38:02;2.30;;;2.03;;
4001;SDS011;2015;48.670;9.060;2022-09-09T00:40:46;2.03;;;1.80;;
4001;SDS011;2015;48.670;9.060;2022-09-09T00:43:26;3.07;;;2.87;;
4001;SDS011;2015;48.670;9.060;2022-09-09T00:52:16;3.47;;;2.00;;
4001;SDS011;2015;48.670;9.060;2022-09-09T00:58:06;1.87;;;1.67;;
4001;SDS011;2015;48.670;9.060;2022-09-09T01:00:42;2.27;;;2.10;;
4001;SDS011;2015;48.670;9.060;2022-09-09T01:03:26;2.17;;;1.90;;
4001;SDS011;2015;48.670;9.060;2022-09-09T01:06:12;2.30;;;2.10;;
4001;SDS011;2015;48.670;9.060;2022-09-09T01:12:40;5.27;;;2.93;;
4001;SDS011;2015;48.670;9.060;2022-09-09T01:15:19;3.53;;;2.20;;
4001;SDS011;2015;48.670;9.060;2022-09-09T01:20:38;2.50;;;2.30;;
4001;SDS011;2015;48.670;9.060;2022-09-09T01:29:06;4.47;;;2.07;;
4001;SDS011;2015;48.670;9.060;2022-09-09T01:31:42;2.50;;;2.30;;
4001;SDS011;2015;48.670;9.060;2022-09-09T01:34:26;2.57;;;2.37;;
4001;SDS011;2015;48.670;9.060;2022-09-09T01:37:03;2.53;;;2.33;;
4001;SDS011;2015;48.670;9.060;2022-09-09T01:39:39;2.97;;;2.77;;
4001;SDS011;2015;48.670;9.060;2022-09-09T01:42:15;2.43;;;2.20;;
4001;SDS011;2015;48.670;9.060;2022-09-09T01:44:47;2.83;;;2.20;;
4001;SDS011;2015;48.670;9.060;2022-09-09T01:47:19;2.47;;;2.15;;
4001;SDS011;2015;48.670;9.060;2022-09-09T01:49:51;2.60;;;2.40;;
4001;SDS011;2015;48.670;9.060;2022-09-09T01:52:22;4.43;;;2.23;;
4001;SDS011;2015;48.670;9.060;2022-09-09T01:54:54;3.00;;;2.70;;
4001;SDS011;2015;48.670;9.060;2022-09-09T01:57:41;2.77;;;2.27;;
4001;SDS011;2015;48.670;9.060;2022-09-09T02:00:21;4.50;;;2.27;;
4001;SDS011;2015;48.670;9.060;2022-09-09T02:05:44;4.00;;;2.43;;
4001;SDS011;2015;48.670;9.060;2022-09-09T02:14:12;3.63;;;2.40;;
4001;SDS011;2015;48.670;9.060;2022-09-09T02:16:48;3.13;;;2.33;;
4001;SDS011;2015;48.670;9.060;2022-09-09T02:19:25;3.97;;;2.57;;
4001;SDS011;2015;48.670;9.060;2022-09-09T02:22:01;3.10;;;2.53;;
4001;SDS011;2015;48.670;9.060;2022-09-09T02:24:35;2.70;;;2.50;;
4001;SDS011;2015;48.670;9.060;2022-09-09T02:27:08;2.57;;;2.37;;
4001;SDS011;2015;48.670;9.060;2022-09-09T02:29:42;2.53;;;2.33;;
4001;SDS011;2015;48.670;9.060;2022-09-09T02:32:21;4.10;;;3.57;;
4001;SDS011;2015;48.670;9.060;2022-09-09T02:34:55;3.00;;;2.80;;
4001;SDS011;2015;48.670;9.060;2022-09-09T02:37:33;4.27;;;2.20;;
4001;SDS011;2015;48.670;9.060;2022-09-09T02:40:09;2.37;;;2.20;;
4001;SDS011;2015;48.670;9.060;2022-09-09T02:42:44;2.53;;;2.33;;
4001;SDS011;2015;48.670;9.060;2022-09-09T02:45:23;2.57;;;1.90;;
4001;SDS011;2015;48.670;9.060;2022-09-09T02:51:00;4.10;;;2.33;;
4001;SDS011;2015;48.670;9.060;2022-09-09T02:56:27;2.73;;;2.37;;
4001;SDS011;2015;48.670;9.060;2022-09-09T02:59:04;2.33;;;2.20;;
4001;SDS011;2015;48.670;9.060;2022-09-09T03:01:37;2.80;;;2.60;;
4001;SDS011;2015;48.670;9.060;2022-09-09T03:04:11;3.20;;;2.57;;
4001;SDS011;2015;48.670;9.060;2022-09-09T03:06:42;4.13;;;2.80;;
4001;SDS011;2015;48.670;9.060;2022-09-09T03:09:15;2.53;;;2.33;;
4001;SDS011;2015;48.670;9.060;2022-09-09T03:11:47;3.57;;;2.30;;
4001;SDS011;2015;48.670;9.060;2022-09-09T03:14:18;3.23;;;2.30;;
4001;SDS011;2015;48.670;9.060;2022-09-09T03:16:52;2.40;;;2.10;;
4001;SDS011;2015;48.670;9.060;2022-09-09T03:19:25;4.67;;;2.20;;
4001;SDS011;2015;48.670;9.060;2022-09-09T03:21:57;6.43;;;2.90;;
4001;SDS011;2015;48.670;9.060;2022-09-09T03:24:29;3.87;;;2.70;;
4001;SDS011;2015;48.670;9.060;2022-09-09T03:27:01;2.87;;;2.70;;
4001;SDS011;2015;48.670;9.060;2022-09-09T03:29:33;3.33;;;2.70;;
4001;SDS011;2015;48.670;9.060;2022-09-09T03:32:05;4.23;;;2.30;;
4001;SDS011;2015;48.670;9.060;2022-09-09T03:34:37;3.00;;;2.80;;
4001;SDS011;2015;48.670;9.060;2022-09-09T03:37:11;2.37;;;2.07;;
4001;SDS011;2015;48.670;9.060;2022-09-09T03:39:43;3.20;;;2.40;;
4001;SDS011;2015;48.670;9.060;2022-09-09T03:42:15;3.27;;;2.50;;
4001;SDS011;2015;48.670;9.060;2022-09-09T03:44:50;2.73;;;2.10;;
4001;SDS011;2015;48.670;9.060;2022-09-09T03:47:22;5.63;;;2.90;;
4001;SDS011;2015;48.670;9.060;2022-09-09T03:49:54;2.77;;;2.57;;
4001;SDS011;2015;48.670;9.060;2022-09-09T03:52:26;2.30;;;2.10;;
4001;SDS011;2015;48.670;9.060;2022-09-09T03:54:57;2.43;;;2.23;;
4001;SDS011;2015;48.670;9.060;2022-09-09T03:57:29;3.50;;;3.17;;
4001;SDS011;2015;48.670;9.060;2022-09-09T04:00:04;3.43;;;2.90;;
4001;SDS011;2015;48.670;9.060;2022-09-09T04:02:37;3.00;;;2.80;;
4001;SDS011;2015;48.670;9.060;2022-09-09T04:05:10;3.00;;;2.80;;
4001;SDS011;2015;48.670;9.060;2022-09-09T04:07:42;2.50;;;2.30;;
4001;SDS011;2015;48.670;9.060;2022-09-09T04:10:14;2.40;;;2.30;;
4001;SDS011;2015;48.670;9.060;2022-09-09T04:12:47;2.50;;;2.40;;
4001;SDS011;2015;48.670;9.060;2022-09-09T04:15:19;2.37;;;2.27;;
4001;SDS011;2015;48.670;9.060;2022-09-09T04:17:52;2.83;;;2.10;;
4001;SDS011;2015;48.670;9.060;2022-09-09T04:20:23;3.20;;;2.03;;
4001;SDS011;2015;48.670;9.060;2022-09-09T04:22:55;3.53;;;2.40;;
4001;SDS011;2015;48.670;9.060;2022-09-09T04:25:27;2.30;;;2.10;;
4001;SDS011;2015;48.670;9.060;2022-09-09T04:27:59;2.80;;;2.60;;
4001;SDS011;2015;48.670;9.060;2022-09-09T04:30:31;3.80;;;2.60;;
4001;SDS011;2015;48.670;9.060;2022-09-09T04:33:03;2.70;;;2.50;;
4001;SDS011;2015;48.670;9.060;2022-09-09T04:35:35;3.33;;;1.92;;
4001;SDS011;2015;48.670;9.060;2022-09-09T04:38:07;3.43;;;2.93;;
4001;SDS011;2015;48.670;9.060;2022-09-09T04:40:46;3.37;;;3.07;;
4001;SDS011;2015;48.670;9.060;2022-09-09T04:43:18;6.90;;;2.60;;
4001;SDS011;2015;48.670;9.060;2022-09-09T04:45:51;3.00;;;2.47;;
4001;SDS011;2015;48.670;9.060;2022-09-09T04:48:23;3.10;;;2.80;;
4001;SDS011;2015;48.670;9.060;2022-09-09T04:51:00;6.93;;;2.70;;
4001;SDS011;2015;48.670;9.060;2022-09-09T04:53:35;3.10;;;2.80;;
4001;SDS011;2015;48.670;9.060;2022-09-09T04:56:13;3.67;;;3.37;;
4001;SDS011;2015;48.670;9.060;2022-09-09T04:58:46;4.70;;;3.00;;
4001;SDS011;2015;48.670;9.060;2022-09-09T05:01:19;3.37;;;3.00;;
4001;SDS011;2015;48.670;9.060;2022-09-09T05:03:54;3.03;;;2.47;;
4001;SDS011;2015;48.670;9.060;2022-09-09T05:06:26;3.33;;;3.13;;
4001;SDS011;2015;48.670;9.060;2022-09-09T05:08:58;3.60;;;2.90;;
4001;SDS011;2015;48.670;9.060;2022-09-09T05:11:31;3.90;;;3.00;;
4001;SDS011;2015;48.670;9.060;2022-09-09T05:14:05;3.50;;;3.20;;
4001;SDS011;2015;48.670;9.060;2022-09-09T05:16:36;3.90;;;2.17;;
4001;SDS011;2015;48.670;9.060;2022-09-09T05:19:08;3.17;;;2.50;;
4001;SDS011;2015;48.670;9.060;2022-09-09T05:21:40;3.33;;;2.83;;
4001;SDS011;2015;48.670;9.060;2022-09-09T05:24:12;2.90;;;2.70;;
4001;SDS011;2015;48.670;9.060;2022-09-09T05:26:44;3.00;;;2.80;;
4001;SDS011;2015;48.670;9.060;2022-09-09T05:29:16;3.50;;;3.30;;
4001;SDS011;2015;48.670;9.060;2022-09-09T05:31:50;3.10;;;2.90;;
4001;SDS011;2015;48.670;9.060;2022-09-09T05:34:21;3.40;;;3.10;;
4001;SDS011;2015;48.670;9.060;2022-09-09T05:36:53;4.73;;;3.00;;
4001;SDS011;2015;48.670;9.060;2022-09-09T05:39:25;6.47;;;3.03;;
4001;SDS011;2015;48.670;9.060;2022-09-09T05:41:57;4.47;;;3.00;;
4001;SDS011;2015;48.670;9.060;2022-09-09T05:44:28;6.00;;;3.00;;
4001;SDS011;2015;48.670;9.060;2022-09-09T05:47:00;3.30;;;2.30;;
4001;SDS011;2015;48.670;9.060;2022-09-09T05:49:32;2.80;;;2.60;;
4001;SDS011;2015;48.670;9.060;2022-09-09T05:52:03;2.70;;;2.50;;
4001;SDS011;2015;48.670;9.060;2022-09-09T05:54:35;3.43;;;3.13;;
4001;SDS011;2015;48.670;9.060;2022-09-09T05:57:08;3.30;;;3.00;;
4001;SDS011;2015;48.670;9.060;2022-09-09T05:59:40;3.27;;;2.97;;
4001;SDS011;2015;48.670;9.060;2022-09-09T06:02:12;3.23;;;2.93;;
4001;SDS011;2015;48.670;9.060;2022-09-09T06:04:44;3.70;;;3.20;;
4001;SDS011;2015;48.670;9.060;2022-09-09T06:07:16;3.30;;;3.10;;
4001;SDS011;2015;48.670;9.060;2022-09-09T06:09:48;3.87;;;3.50;;
4001;SDS011;2015;48.670;9.060;2022-09-09T06:12:21;4.27;;;3.87;;
4001;SDS011;2015;48.670;9.060;2022-09-09T06:14:53;3.40;;;3.10;;
4001;SDS011;2015;48.670;9.060;2022-09-09T06:17:24;3.10;;;2.90;;
4001;SDS011;2015;48.670;9.060;2022-09-09T06:19:56;6.50;;;2.40;;
4001;SDS011;2015;48.670;9.060;2022-09-09T06:22:28;4.17;;;3.33;;
4001;SDS011;2015;48.670;9.060;2022-09-09T06:24:59;2.90;;;2.70;;
4001;SDS011;2015;48.670;9.060;2022-09-09T06:27:32;4.88;;;2.22;;
4001;SDS011;2015;48.670;9.060;2022-09-09T06:30:04;2.60;;;2.50;;
4001;SDS011;2015;48.670;9.060;2022-09-09T06:32:36;2.63;;;2.43;;
4001;SDS011;2015;48.670;9.060;2022-09-09T06:35:08;4.60;;;3.23;;
4001;SDS011;2015;48.670;9.060;2022-09-09T06:37:44;2.90;;;2.63;;
4001;SDS011;2015;48.670;9.060;2022-09-09T06:40:16;2.60;;;2.50;;
4001;SDS011;2015;48.670;9.060;2022-09-09T06:42:48;2.80;;;2.60;;
4001;SDS011;2015;48.670;9.060;2022-09-09T06:45:20;4.30;;;2.40;;
4001;SDS011;2015;48.670;9.060;2022-09-09T06:47:54;3.00;;;2.20;;
4001;SDS011;2015;48.670;9.060;2022-09-09T06:50:26;2.53;;;2.37;;
4001;SDS011;2015;48.670;9.060;2022-09-09T06:52:57;2.40;;;2.30;;
4001;SDS011;2015;48.670;9.060;2022-09-09T06:55:29;4.33;;;2.40;;
4001;SDS011;2015;48.670;9.060;2022-09-09T06:58:01;2.50;;;2.30;;
4001;SDS011;2015;48.670;9.060;2022-09-09T07:00:33;3.13;;;2.93;;
4001;SDS011;2015;48.670;9.060;2022-09-09T07:03:05;2.60;;;2.37;;
4001;SDS011;2015;48.670;9.060;2022-09-09T07:05:37;2.27;;;2.17;;
4001;SDS011;2015;48.670;9.060;2022-09-09T07:08:08;2.23;;;2.03;;
4001;SDS011;2015;48.670;9.060;2022-09-09T07:10:41;6.70;;;2.43;;
4001;SDS011;2015;48.670;9.060;2022-09-09T07:13:14;2.73;;;2.30;;
4001;SDS011;2015;48.670;9.060;2022-09-09T07:15:46;2.53;;;2.33;;
4001;SDS011;2015;48.670;9.060;2022-09-09T07:18:19;4.70;;;2.97;;
4001;SDS011;2015;48.670;9.060;2022-09-09T07:20:54;4.70;;;3.03;;
4001;SDS011;2015;48.670;9.060;2022-09-09T07:23:28;4.22;;;2.22;;
4001;SDS011;2015;48.670;9.060;2022-09-09T07:26:09;2.60;;;2.40;;
4001;SDS011;2015;48.670;9.060;2022-09-09T07:28:44;2.50;;;2.30;;
4001;SDS011;2015;48.670;9.060;2022-09-09T07:31:17;2.20;;;2.10;;
4001;SDS011;2015;48.670;9.060;2022-09-09T07:33:51;2.10;;;2.00;;
4001;SDS011;2015;48.670;9.060;2022-09-09T07:36:24;2.60;;;2.10;;
4001;SDS011;2015;48.670;9.060;2022-09-09T07:39:04;2.30;;;2.10;;
4001;SDS011;2015;48.670;9.060;2022-09-09T07:41:39;2.37;;;2.17;;
4001;SDS011;2015;48.670;9.060;2022-09-09T07:44:17;3.13;;;2.93;;
4001;SDS011;2015;48.670;9.060;2022-09-09T07:46:52;4.40;;;2.13;;
4001;SDS011;2015;48.670;9.060;2022-09-09T07:49:24;2.43;;;2.00;;
4001;SDS011;2015;48.670;9.060;2022-09-09T07:52:02;2.80;;;2.33;;
4001;SDS011;2015;48.670;9.060;2022-09-09T07:54:34;3.77;;;2.50;;
4001;SDS011;2015;48.670;9.060;2022-09-09T07:57:06;6.40;;;2.40;;
4001;SDS011;2015;48.670;9.060;2022-09-09T07:59:38;2.83;;;2.63;;
4001;SDS011;2015;48.670;9.060;2022-09-09T08:02:10;2.27;;;2.17;;
4001;SDS011;2015;48.670;9.060;2022-09-09T08:04:42;2.90;;;2.43;;
4001;SDS011;2015;48.670;9.060;2022-09-09T08:07:13;2.57;;;2.20;;
4001;SDS011;2015;48.670;9.060;2022-09-09T08:09:45;3.50;;;2.30;;
4001;SDS011;2015;48.670;9.060;2022-09-09T08:12:17;6.33;;;3.13;;
4001;SDS011;2015;48.670;9.060;2022-09-09T08:14:49;2.20;;;2.10;;
4001;SDS011;2015;48.670;9.060;2022-09-09T08:17:22;2.73;;;2.40;;
4001;SDS011;2015;48.670;9.060;2022-09-09T08:19:54;6.10;;;2.47;;
4001;SDS011;2015;48.670;9.060;2022-09-09T08:22:26;2.80;;;2.60;;
4001;SDS011;2015;48.670;9.060;2022-09-09T08:24:58;2.20;;;2.10;;
4001;SDS011;2015;48.670;9.060;2022-09-09T08:27:29;3.57;;;2.20;;
4001;SDS011;2015;48.670;9.060;2022-09-09T08:30:03;3.10;;;2.33;;
4001;SDS011;2015;48.670;9.060;2022-09-09T08:32:35;3.47;;;2.43;;
4001;SDS011;2015;48.670;9.060;2022-09-09T08:35:10;9.07;;;2.37;;
4001;SDS011;2015;48.670;9.060;2022-09-09T08:37:41;2.23;;;2.03;;
4001;SDS011;2015;48.670;9.060;2022-09-09T08:40:18;5.13;;;2.63;;
4001;SDS011;2015;48.670;9.060;2022-09-09T08:42:53;2.43;;;1.90;;
4001;SDS011;2015;48.670;9.060;2022-09-09T08:45:29;2.33;;;2.13;;
4001;SDS011;2015;48.670;9.060;2022-09-09T08:50:38;2.47;;;1.87;;
4001;SDS011;2015;48.670;9.060;2022-09-09T08:55:59;3.67;;;2.40;;
4001;SDS011;2015;48.670;9.060;2022-09-09T08:58:34;3.87;;;2.20;;
4001;SDS011;2015;48.670;9.060;2022-09-09T09:06:42;4.23;;;2.30;;
4001;SDS011;2015;48.670;9.060;2022-09-09T09:12:18;11.10;;;3.90;;
4001;SDS011;2015;48.670;9.060;2022-09-09T09:14:52;7.70;;;2.90;;
4001;SDS011;2015;48.670;9.060;2022-09-09T09:17:27;7.90;;;3.30;;
4001;SDS011;2015;48.670;9.060;2022-09-09T09:20:02;3.97;;;2.40;;
4001;SDS011;2015;48.670;9.060;2022-09-09T09:25:31;4.10;;;2.17;;
4001;SDS011;2015;48.670;9.060;2022-09-09T09:28:16;2.40;;;1.80;;
4001;SDS011;2015;48.670;9.060;2022-09-09T09:30:50;3.00;;;2.00;;
4001;SDS011;2015;48.670;9.060;2022-09-09T09:36:34;4.93;;;2.03;;
4001;SDS011;2015;48.670;9.060;2022-09-09T09:39:25;1.97;;;1.87;;
4001;SDS011;2015;48.670;9.060;2022-09-09T09:42:21;2.53;;;1.70;;
4001;SDS011;2015;48.670;9.060;2022-09-09T09:44:54;3.50;;;2.27;;
4001;SDS011;2015;48.670;9.060;2022-09-09T09:47:25;2.33;;;1.50;;
4001;SDS011;2015;48.670;9.060;2022-09-09T09:49:59;2.00;;;1.70;;
4001;SDS011;2015;48.670;9.060;2022-09-09T09:52:33;6.28;;;1.67;;
4001;SDS011;2015;48.670;9.060;2022-09-09T09:55:12;2.53;;;1.98;;
4001;SDS011;2015;48.670;9.060;2022-09-09T09:57:45;3.42;;;1.58;;
4001;SDS011;2015;48.670;9.060;2022-09-09T10:00:18;1.95;;;1.67;;
4001;SDS011;2015;48.670;9.060;2022-09-09T10:02:52;1.73;;;1.63;;
4001;SDS011;2015;48.670;9.060;2022-09-09T10:05:25;2.95;;;2.28;;
4001;SDS011;2015;48.670;9.060;2022-09-09T10:08:08;9.27;;;2.08;;
4001;SDS011;2015;48.670;9.060;2022-09-09T10:13:33;2.00;;;1.48;;
4001;SDS011;2015;48.670;9.060;2022-09-09T10:19:10;3.03;;;2.30;;
4001;SDS011;2015;48.670;9.060;2022-09-09T10:27:50;2.53;;;2.33;;
4001;SDS011;2015;48.670;9.060;2022-09-09T10:36:21;3.75;;;1.67;;
4001;SDS011;2015;48.670;9.060;2022-09-09T10:39:01;3.38;;;1.95;;
4001;SDS011;2015;48.670;9.060;2022-09-09T10:56:13;2.90;;;2.60;;
4001;SDS011;2015;48.670;9.060;2022-09-09T11:01:36;2.10;;;1.90;;
4001;SDS011;2015;48.670;9.060;2022-09-09T11:04:21;2.60;;;1.77;;
4001;SDS011;2015;48.670;9.060;2022-09-09T11:06:56;1.70;;;1.60;;
4001;SDS011;2015;48.670;9.060;2022-09-09T11:09:41;2.50;;;1.97;;
4001;SDS011;2015;48.670;9.060;2022-09-09T11:12:19;3.63;;;2.20;;
4001;SDS011;2015;48.670;9.060;2022-09-09T11:14:54;2.53;;;2.33;;
4001;SDS011;2015;48.670;9.060;2022-09-09T11:17:46;3.70;;;2.73;;
4001;SDS011;2015;48.670;9.060;2022-09-09T11:20:27;3.70;;;2.77;;
4001;SDS011;2015;48.670;9.060;2022-09-09T11:23:03;2.70;;;1.40;;
4001;SDS011;2015;48.670;9.060;2022-09-09T11:25:45;3.03;;;1.70;;
4001;SDS011;2015;48.670;9.060;2022-09-09T11:28:27;1.70;;;1.50;;
4001;SDS011;2015;48.670;9.060;2022-09-09T11:37:10;1.57;;;1.47;;
4001;SDS011;2015;48.670;9.060;2022-09-09T11:42:41;1.07;;;0.97;;
4001;SDS011;2015;48.670;9.060;2022-09-09T11:45:26;1.20;;;1.10;;
4001;SDS011;2015;48.670;9.060;2022-09-09T11:48:00;1.30;;;1.00;;
4001;SDS011;2015;48.670;9.060;2022-09-09T11:50:36;2.70;;;1.00;;
4001;SDS011;2015;48.670;9.060;2022-09-09T11:55:43;4.07;;;0.90;;
4001;SDS011;2015;48.670;9.060;2022-09-09T11:58:16;1.00;;;0.80;;
4001;SDS011;2015;48.670;9.060;2022-09-09T12:00:49;1.07;;;0.90;;
4001;SDS011;2015;48.670;9.060;2022-09-09T12:07:02;1.10;;;1.00;;
4001;SDS011;2015;48.670;9.060;2022-09-09T12:09:23;1.30;;;1.10;;
4001;SDS011;2015;48.670;9.060;2022-09-09T12:14:53;1.20;;;1.10;;
4001;SDS011;2015;48.670;9.060;2022-09-09T12:17:36;1.00;;;0.90;;
4001;SDS011;2015;48.670;9.060;2022-09-09T12:23:13;1.20;;;1.10;;
4001;SDS011;2015;48.670;9.060;2022-09-09T12:37:03;2.93;;;1.63;;
4001;SDS011;2015;48.670;9.060;2022-09-09T12:40:00;2.03;;;1.60;;
4001;SDS011;2015;48.670;9.060;2022-09-09T12:42:39;1.50;;;1.40;;
4001;SDS011;2015;48.670;9.060;2022-09-09T12:45:15;1.70;;;1.30;;
4001;SDS011;2015;48.670;9.060;2022-09-09T12:48:10;1.67;;;1.53;;
4001;SDS011;2015;48.670;9.060;2022-09-09T12:50:50;1.40;;;1.30;;
4001;SDS011;2015;48.670;9.060;2022-09-09T12:53:30;1.50;;;1.40;;
4001;SDS011;2015;48.670;9.060;2022-09-09T12:56:06;2.50;;;2.40;;
4001;SDS011;2015;48.670;9.060;2022-09-09T12:58:44;2.03;;;1.93;;
4001;SDS011;2015;48.670;9.060;2022-09-09T13:01:25;1.60;;;1.50;;
4001;SDS011;2015;48.670;9.060;2022-09-09T13:04:02;2.60;;;2.40;;
4001;SDS011;2015;48.670;9.060;2022-09-09T13:06:34;1.40;;;1.30;;
4001;SDS011;2015;48.670;9.060;2022-09-09T13:09:08;2.10;;;1.37;;
4001;SDS011;2015;48.670;9.060;2022-09-09T13:11:41;1.93;;;1.70;;
4001;SDS011;2015;48.670;9.060;2022-09-09T13:14:34;1.80;;;1.70;;
4001;SDS011;2015;48.670;9.060;2022-09-09T13:17:24;1.40;;;1.23;;
4001;SDS011;2015;48.670;9.060;2022-09-09T13:19:58;3.47;;;1.70;;
4001;SDS011;2015;48.670;9.060;2022-09-09T13:22:36;3.63;;;1.30;;
4001;SDS011;2015;48.670;9.060;2022-09-09T13:27:50;1.67;;;1.00;;
4001;SDS011;2015;48.670;9.060;2022-09-09T13:38:25;1.40;;;1.30;;
4001;SDS011;2015;48.670;9.060;2022-09-09T13:41:00;3.13;;;1.73;;
4001;SDS011;2015;48.670;9.060;2022-09-09T13:43:45;1.87;;;1.10;;
4001;SDS011;2015;48.670;9.060;2022-09-09T13:46:37;1.97;;;1.50;;
4001;SDS011;2015;48.670;9.060;2022-09-09T13:51:46;1.40;;;1.00;;
4001;SDS011;2015;48.670;9.060;2022-09-09T13:54:20;1.80;;;1.20;;
4001;SDS011;2015;48.670;9.060;2022-09-09T13:56:52;2.60;;;1.20;;
4001;SDS011;2015;48.670;9.060;2022-09-09T13:59:24;3.97;;;1.80;;
4001;SDS011;2015;48.670;9.060;2022-09-09T14:02:17;1.37;;;1.27;;
4001;SDS011;2015;48.670;9.060;2022-09-09T14:04:49;1.50;;;0.80;;
4001;SDS011;2015;48.670;9.060;2022-09-09T14:07:25;1.67;;;1.20;;
4001;SDS011;2015;48.670;9.060;2022-09-09T14:09:58;3.87;;;1.00;;
4001;SDS011;2015;48.670;9.060;2022-09-09T14:12:31;1.07;;;0.97;;
4001;SDS011;2015;48.670;9.060;2022-09-09T14:15:03;2.13;;;1.30;;
4001;SDS011;2015;48.670;9.060;2022-09-09T14:17:35;5.00;;;1.40;;
4001;SDS011;2015;48.670;9.060;2022-09-09T14:20:07;1.07;;;0.97;;
4001;SDS011;2015;48.670;9.060;2022-09-09T14:22:41;2.67;;;1.57;;
4001;SDS011;2015;48.670;9.060;2022-09-09T14:25:13;1.67;;;0.90;;
4001;SDS011;2015;48.670;9.060;2022-09-09T14:27:45;1.63;;;0.60;;
4001;SDS011;2015;48.670;9.060;2022-09-09T14:30:17;0.90;;;0.70;;
4001;SDS011;2015;48.670;9.060;2022-09-09T14:32:48;1.53;;;1.00;;
4001;SDS011;2015;48.670;9.060;2022-09-09T14:35:20;1.53;;;1.00;;
4001;SDS011;2015;48.670;9.060;2022-09-09T14:37:53;2.23;;;0.93;;
4001;SDS011;2015;48.670;9.060;2022-09-09T14:40:26;1.80;;;1.17;;
4001;SDS011;2015;48.670;9.060;2022-09-09T14:42:58;1.87;;;1.10;;
4001;SDS011;2015;48.670;9.060;2022-09-09T14:45:30;2.17;;;1.40;;
4001;SDS011;2015;48.670;9.060;2022-09-09T14:48:02;2.60;;;1.00;;
4001;SDS011;2015;48.670;9.060;2022-09-09T14:50:34;1.63;;;1.53;;
4001;SDS011;2015;48.670;9.060;2022-09-09T14:53:10;3.90;;;0.90;;
4001;SDS011;2015;48.670;9.060;2022-09-09T14:55:43;1.67;;;1.10;;
4001;SDS011;2015;48.670;9.060;2022-09-09T14:58:17;5.43;;;1.30;;
4001;SDS011;2015;48.670;9.060;2022-09-09T15:00:48;1.17;;;1.07;;
4001;SDS011;2015;48.670;9.060;2022-09-09T15:03:20;3.27;;;1.13;;
4001;SDS011;2015;48.670;9.060;2022-09-09T15:05:54;1.70;;;1.13;;
4001;SDS011;2015;48.670;9.060;2022-09-09T15:08:25;1.40;;;1.10;;
4001;SDS011;2015;48.670;9.060;2022-09-09T15:11:04;1.40;;;1.17;;
4001;SDS011;2015;48.670;9.060;2022-09-09T15:13:39;3.07;;;1.20;;
4001;SDS011;2015;48.670;9.060;2022-09-09T15:18:46;2.17;;;1.10;;
4001;SDS011;2015;48.670;9.060;2022-09-09T15:21:22;2.50;;;1.27;;
4001;SDS011;2015;48.670;9.060;2022-09-09T15:23:56;2.60;;;1.23;;
4001;SDS011;2015;48.670;9.060;2022-09-09T15:26:28;2.63;;;1.30;;
4001;SDS011;2015;48.670;9.060;2022-09-09T15:29:01;1.50;;;1.00;;
4001;SDS011;2015;48.670;9.060;2022-09-09T15:31:32;2.83;;;1.30;;
4001;SDS011;2015;48.670;9.060;2022-09-09T15:34:05;1.83;;;1.73;;
4001;SDS011;2015;48.670;9.060;2022-09-09T15:36:39;1.73;;;1.10;;
4001;SDS011;2015;48.670;9.060;2022-09-09T15:39:14;1.40;;;1.00;;
4001;SDS011;2015;48.670;9.060;2022-09-09T15:41:47;1.27;;;0.97;;
4001;SDS011;2015;48.670;9.060;2022-09-09T15:44:19;1.80;;;1.00;;
4001;SDS011;2015;48.670;9.060;2022-09-09T15:46:52;1.40;;;1.00;;
4001;SDS011;2015;48.670;9.060;2022-09-09T15:49:26;2.17;;;1.40;;
4001;SDS011;2015;48.670;9.060;2022-09-09T15:51:59;1.40;;;1.30;;
4001;SDS011;2015;48.670;9.060;2022-09-09T15:54:34;1.90;;;1.20;;
4001;SDS011;2015;48.670;9.060;2022-09-09T15:57:11;1.53;;;1.30;;
4001;SDS011;2015;48.670;9.060;2022-09-09T15:59:43;1.20;;;1.10;;
4001;SDS011;2015;48.670;9.060;2022-09-09T16:02:16;1.50;;;1.30;;
4001;SDS011;2015;48.670;9.060;2022-09-09T16:04:49;4.60;;;1.30;;
4001;SDS011;2015;48.670;9.060;2022-09-09T16:07:21;1.70;;;1.20;;
4001;SDS011;2015;48.670;9.060;2022-09-09T16:09:52;1.50;;;1.10;;
4001;SDS011;2015;48.670;9.060;2022-09-09T16:12:25;3.83;;;1.30;;
4001;SDS011;2015;48.670;9.060;2022-09-09T16:14:57;3.00;;;1.10;;
4001;SDS011;2015;48.670;9.060;2022-09-09T16:17:30;2.33;;;1.17;;
4001;SDS011;2015;48.670;9.060;2022-09-09T16:20:08;1.53;;;1.40;;
4001;SDS011;2015;48.670;9.060;2022-09-09T16:22:40;4.60;;;1.20;;
4001;SDS011;2015;48.670;9.060;2022-09-09T16:25:13;2.60;;;0.80;;
4001;SDS011;2015;48.670;9.060;2022-09-09T16:27:45;3.07;;;0.90;;
4001;SDS011;2015;48.670;9.060;2022-09-09T16:30:17;2.47;;;1.00;;
4001;SDS011;2015;48.670;9.060;2022-09-09T16:32:49;1.53;;;1.07;;
4001;SDS011;2015;48.670;9.060;2022-09-09T16:35:20;2.17;;;1.03;;
4001;SDS011;2015;48.670;9.060;2022-09-09T16:37:53;1.50;;;1.10;;
4001;SDS011;2015;48.670;9.060;2022-09-09T16:40:24;1.90;;;1.00;;
4001;SDS011;2015;48.670;9.060;2022-09-09T16:42:57;1.00;;;0.90;;
4001;SDS011;2015;48.670;9.060;2022-09-09T16:45:28;1.43;;;1.33;;
4001;SDS011;2015;48.670;9.060;2022-09-09T16:48:01;1.93;;;1.00;;
4001;SDS011;2015;48.670;9.060;2022-09-09T16:50:32;1.13;;;0.80;;
4001;SDS011;2015;48.670;9.060;2022-09-09T16:53:04;1.10;;;0.90;;
4001;SDS011;2015;48.670;9.060;2022-09-09T16:55:40;1.10;;;0.87;;
4001;SDS011;2015;48.670;9.060;2022-09-09T16:58:13;1.27;;;1.00;;
4001;SDS011;2015;48.670;9.060;2022-09-09T17:00:45;3.77;;;0.90;;
4001;SDS011;2015;48.670;9.060;2022-09-09T17:03:18;1.00;;;0.90;;
4001;SDS011;2015;48.670;9.060;2022-09-09T17:05:51;1.00;;;0.80;;
4001;SDS011;2015;48.670;9.060;2022-09-09T17:08:24;1.30;;;1.20;;
4001;SDS011;2015;48.670;9.060;2022-09-09T17:10:56;2.30;;;0.90;;
4001;SDS011;2015;48.670;9.060;2022-09-09T17:13:28;4.30;;;1.57;;
4001;SDS011;2015;48.670;9.060;2022-09-09T17:16:03;4.20;;;1.00;;
4001;SDS011;2015;48.670;9.060;2022-09-09T17:18:36;1.37;;;1.27;;
4001;SDS011;2015;48.670;9.060;2022-09-09T17:21:09;1.30;;;1.10;;
4001;SDS011;2015;48.670;9.060;2022-09-09T17:23:44;1.33;;;1.00;;
4001;SDS011;2015;48.670;9.060;2022-09-09T17:26:17;2.20;;;1.17;;
4001;SDS011;2015;48.670;9.060;2022-09-09T17:28:50;1.10;;;0.97;;
4001;SDS011;2015;48.670;9.060;2022-09-09T17:31:29;1.30;;;1.20;;
4001;SDS011;2015;48.670;9.060;2022-09-09T17:34:01;1.10;;;0.85;;
4001;SDS011;2015;48.670;9.060;2022-09-09T17:36:33;1.10;;;1.00;;
4001;SDS011;2015;48.670;9.060;2022-09-09T17:39:05;2.50;;;1.10;;
4001;SDS011;2015;48.670;9.060;2022-09-09T17:41:38;1.73;;;0.90;;
4001;SDS011;2015;48.670;9.060;2022-09-09T17:44:10;1.93;;;1.83;;
4001;SDS011;2015;48.670;9.060;2022-09-09T17:46:42;1.47;;;1.37;;
4001;SDS011;2015;48.670;9.060;2022-09-09T17:49:16;1.20;;;1.00;;
4001;SDS011;2015;48.670;9.060;2022-09-09T17:51:48;1.33;;;1.20;;
4001;SDS011;2015;48.670;9.060;2022-09-09T17:54:20;2.73;;;2.63;;
4001;SDS011;2015;48.670;9.060;2022-09-09T17:56:52;1.40;;;1.30;;
4001;SDS011;2015;48.670;9.060;2022-09-09T17:59:24;1.43;;;1.33;;
4001;SDS011;2015;48.670;9.060;2022-09-09T18:01:56;1.30;;;1.20;;
4001;SDS011;2015;48.670;9.060;2022-09-09T18:04:28;1.23;;;1.10;;
4001;SDS011;2015;48.670;9.060;2022-09-09T18:07:00;1.20;;;1.10;;
4001;SDS011;2015;48.670;9.060;2022-09-09T18:09:32;1.50;;;1.40;;
4001;SDS011;2015;48.670;9.060;2022-09-09T18:12:04;2.07;;;1.50;;
4001;SDS011;2015;48.670;9.060;2022-09-09T18:14:37;1.83;;;0.90;;
4001;SDS011;2015;48.670;9.060;2022-09-09T18:17:09;1.60;;;1.23;;
4001;SDS011;2015;48.670;9.060;2022-09-09T18:19:41;1.40;;;1.10;;
4001;SDS011;2015;48.670;9.060;2022-09-09T18:22:13;1.60;;;1.50;;
4001;SDS011;2015;48.670;9.060;2022-09-09T18:24:44;2.00;;;0.95;;
4001;SDS011;2015;48.670;9.060;2022-09-09T18:27:18;1.77;;;1.60;;
4001;SDS011;2015;48.670;9.060;2022-09-09T18:29:50;2.30;;;1.43;;
4001;SDS011;2015;48.670;9.060;2022-09-09T18:32:22;1.20;;;1.10;;
4001;SDS011;2015;48.670;9.060;2022-09-09T18:34:54;2.00;;;1.43;;
4001;SDS011;2015;48.670;9.060;2022-09-09T18:37:29;2.17;;;1.23;;
4001;SDS011;2015;48.670;9.060;2022-09-09T18:40:04;3.70;;;1.30;;